Time;durP1;ratioP1;P1;durP2;ratioP2;P2;SDS_P1;SDS_P2;PMS_P1;PMS_P2;Temp;Humidity;BMP_temperature;BMP_pressure;BME280_temperature;BME280_humidity;BME280_pressure;Samples;Min_cycle;Max_cycle;Signal;HPM_P1;HPM_P2
2022/08/29 00:00:11;;;;;;;;;;;18.10;1.00;;;;;;5047686;28;19913;-80
2022/08/29 00:02:37;;;;;;;;;;;18.00;99.90;;;;;;5031021;28;19909;-80
2022/08/29 00:05:02;;;;;;;;;;;18.00;99.90;;;;;;5034477;28;20261;-79
2022/08/29 00:07:28;;;;;;;;;;;17.90;99.90;;;;;;5035993;28;19928;-80
2022/08/29 00:09:53;;;;;;;;;;;17.90;99.90;;;;;;5032221;28;19913;-80
2022/08/29 00:12:19;;;;;;;;;;;17.90;99.90;;;;;;5032414;28;19956;-80
2022/08/29 00:14:44;;;;;;;;;;;17.80;1.00;;;;;;5032272;28;19924;-79
2022/08/29 00:17:10;;;;;;;;;;;17.80;63.30;;;;;;5032139;28;19916;-79
2022/08/29 00:19:35;;;;;;;;;;;17.80;23.30;;;;;;5047657;28;20403;-80
2022/08/29 00:22:01;;;;;;;;;;;17.80;99.90;;;;;;5048501;28;19913;-80
2022/08/29 00:24:26;;;;;;;;;;;17.80;95.50;;;;;;5038064;28;19956;-80
2022/08/29 00:26:52;;;;;;;;;;;17.80;1.00;;;;;;5036852;28;19945;-80
2022/08/29 00:29:17;;;;;;;;;;;17.70;1.00;;;;;;5033754;28;19956;-80
2022/08/29 00:31:43;;;;;;;;;;;17.60;1.00;;;;;;5032109;28;19921;-80
2022/08/29 00:34:08;;;;;;;;;;;17.60;99.90;;;;;;5032134;28;20365;-80
2022/08/29 00:36:34;;;;;;;;;;;17.50;99.90;;;;;;5051207;28;19909;-80
2022/08/29 00:39:00;;;;;;;;;;;17.40;1.00;;;;;;5035850;28;19996;-79
2022/08/29 00:41:26;;;;;;;;;;;17.40;99.90;;;;;;5038466;28;19963;-80
2022/08/29 00:43:51;;;;;;;;;;;17.30;99.90;;;;;;5040735;28;20376;-80
2022/08/29 00:46:33;;;;;;;;;;;17.30;1.00;;;;;;5037950;28;20071;-80
2022/08/29 00:49:01;;;;;;;;;;;17.30;99.90;;;;;;5051248;28;19916;-79
2022/08/29 00:51:26;;;;;;;;;;;17.20;99.90;;;;;;5035732;28;19909;-78
2022/08/29 00:53:56;;;;;;;;;;;17.10;1.00;;;;;;5035716;28;19963;-81
2022/08/29 00:56:22;;;;;;;;;;;17.10;1.00;;;;;;5034195;28;19909;-80
2022/08/29 00:59:11;;;;;;;;;;;17.10;99.90;;;;;;5039550;28;19909;-80
2022/08/29 01:01:37;;;;;;;;;;;17.00;99.90;;;;;;5035601;28;20279;-80
2022/08/29 01:04:03;;;;;;;;;;;16.90;99.90;;;;;;5040350;28;19916;-80
2022/08/29 01:06:30;;;;;;;;;;;16.90;1.00;;;;;;5056257;28;19909;-80
2022/08/29 01:08:56;;;;;;;;;;;16.90;99.90;;;;;;5035401;28;19917;-81
2022/08/29 01:14:06;;;;;;;;;;;16.90;1.00;;;;;;5038335;28;19916;-79
2022/08/29 01:16:31;;;;;;;;;;;16.90;1.00;;;;;;5038654;28;19905;-80
2022/08/29 01:18:59;;;;;;;;;;;16.90;1.00;;;;;;5041798;28;19971;-80
2022/08/29 01:21:28;;;;;;;;;;;16.90;99.90;;;;;;5040881;28;20332;-80
2022/08/29 01:23:53;;;;;;;;;;;16.90;1.00;;;;;;5056246;28;19913;-80
2022/08/29 01:26:21;;;;;;;;;;;16.90;99.90;;;;;;5050569;28;19916;-79
2022/08/29 01:28:49;;;;;;;;;;;16.80;99.90;;;;;;5050421;28;19909;-78
2022/08/29 01:31:16;;;;;;;;;;;16.80;1.00;;;;;;5035054;28;19944;-80
2022/08/29 01:33:43;;;;;;;;;;;16.80;99.90;;;;;;5033691;28;19909;-80
2022/08/29 01:36:10;;;;;;;;;;;16.80;99.90;;;;;;5034760;28;19916;-80
2022/08/29 01:38:37;;;;;;;;;;;16.80;99.90;;;;;;5050159;28;20364;-80
2022/08/29 01:41:03;;;;;;;;;;;16.70;99.90;;;;;;5036042;28;20296;-79
2022/08/29 01:43:28;;;;;;;;;;;16.70;99.90;;;;;;5035236;28;20011;-80
2022/08/29 01:45:55;;;;;;;;;;;16.60;99.90;;;;;;5039279;28;19952;-80
2022/08/29 01:48:21;;;;;;;;;;;16.70;99.90;;;;;;5037907;28;19909;-78
2022/08/29 01:50:46;;;;;;;;;;;16.60;99.90;;;;;;5034737;28;19932;-79
2022/08/29 01:53:12;;;;;;;;;;;16.50;99.90;;;;;;5033306;28;19909;-81
2022/08/29 01:55:38;;;;;;;;;;;16.50;99.90;;;;;;5040583;28;19980;-79
2022/08/29 01:58:04;;;;;;;;;;;16.50;99.90;;;;;;5036985;28;19958;-81
2022/08/29 02:00:30;;;;;;;;;;;16.50;99.90;;;;;;5034449;28;20319;-80
2022/08/29 02:02:59;;;;;;;;;;;16.40;99.90;;;;;;5033161;28;19910;-80
2022/08/29 02:05:24;;;;;;;;;;;16.50;99.90;;;;;;5034020;28;20370;-80
2022/08/29 02:07:50;;;;;;;;;;;16.40;1.00;;;;;;5034949;28;20032;-79
2022/08/29 02:10:16;;;;;;;;;;;16.30;1.00;;;;;;5040036;28;19909;-80
2022/08/29 02:12:42;;;;;;;;;;;16.30;99.90;;;;;;5039974;28;19910;-79
2022/08/29 02:15:08;;;;;;;;;;;16.30;91.20;;;;;;5032993;28;19924;-79
2022/08/29 02:17:33;;;;;;;;;;;16.20;99.90;;;;;;5038528;28;19913;-80
2022/08/29 02:19:59;;;;;;;;;;;16.20;99.90;;;;;;5038182;28;19975;-80
2022/08/29 02:22:24;;;;;;;;;;;16.20;99.90;;;;;;5034027;28;19909;-80
2022/08/29 02:24:50;;;;;;;;;;;16.20;99.90;;;;;;5033900;28;20324;-82
2022/08/29 02:27:15;;;;;;;;;;;16.20;99.90;;;;;;5038384;28;19916;-82
2022/08/29 02:29:41;;;;;;;;;;;16.20;99.90;;;;;;5039231;28;19909;-80
2022/08/29 02:32:10;;;;;;;;;;;16.20;88.50;;;;;;5049406;28;19919;-79
2022/08/29 02:34:36;;;;;;;;;;;16.20;99.90;;;;;;5035393;28;19909;-80
2022/08/29 02:37:02;;;;;;;;;;;16.20;99.90;;;;;;5041934;28;19910;-82
2022/08/29 02:39:29;;;;;;;;;;;16.20;99.90;;;;;;5042031;28;19913;-80
2022/08/29 02:41:55;;;;;;;;;;;16.10;99.90;;;;;;5033757;28;19988;-80
2022/08/29 02:44:21;;;;;;;;;;;16.10;99.90;;;;;;5032042;28;20357;-80
2022/08/29 02:46:46;;;;;;;;;;;16.10;99.90;;;;;;5032077;28;19996;-80
2022/08/29 02:49:12;;;;;;;;;;;16.10;99.90;;;;;;5033473;28;19913;-80
2022/08/29 02:51:37;;;;;;;;;;;16.10;1.00;;;;;;5032222;28;19912;-82
2022/08/29 02:54:03;;;;;;;;;;;16.10;1.00;;;;;;5033656;28;19913;-81
2022/08/29 02:56:29;;;;;;;;;;;16.00;1.00;;;;;;5033582;28;19909;-82
2022/08/29 02:58:54;;;;;;;;;;;15.90;99.90;;;;;;5041356;28;19995;-81
2022/08/29 03:01:20;;;;;;;;;;;15.90;99.90;;;;;;5040557;28;19916;-82
2022/08/29 03:03:46;;;;;;;;;;;15.80;99.90;;;;;;5043581;28;19916;-82
2022/08/29 03:06:11;;;;;;;;;;;15.70;99.90;;;;;;5039727;28;19909;-83
2022/08/29 03:08:38;;;;;;;;;;;15.70;99.90;;;;;;5033839;28;19909;-82
2022/08/29 03:11:04;;;;;;;;;;;15.70;99.90;;;;;;5041526;28;19919;-82
2022/08/29 03:13:30;;;;;;;;;;;15.70;99.90;;;;;;5057966;28;19915;-82
2022/08/29 03:15:56;;;;;;;;;;;15.60;99.90;;;;;;5101226;22;20019;-86
2022/08/29 03:18:21;;;;;;;;;;;15.70;99.90;;;;;;5073210;28;20260;-86
2022/08/29 03:20:47;;;;;;;;;;;15.70;99.90;;;;;;5066083;28;19921;-86
2022/08/29 03:23:12;;;;;;;;;;;15.70;99.90;;;;;;5061138;28;19910;-86
2022/08/29 03:25:38;;;;;;;;;;;15.70;99.90;;;;;;5056345;28;20006;-86
2022/08/29 03:28:03;;;;;;;;;;;15.60;99.90;;;;;;5072087;28;19909;-86
2022/08/29 03:30:29;;;;;;;;;;;15.60;99.90;;;;;;5071897;28;19916;-89
2022/08/29 03:32:56;;;;;;;;;;;15.60;99.90;;;;;;5071909;28;19908;-89
2022/08/29 03:35:22;;;;;;;;;;;15.60;99.90;;;;;;5072948;28;19908;-85
2022/08/29 03:37:48;;;;;;;;;;;15.60;99.90;;;;;;5071809;28;20286;-86
2022/08/29 03:40:14;;;;;;;;;;;15.50;99.90;;;;;;5071880;28;19913;-89
2022/08/29 03:42:41;;;;;;;;;;;15.50;99.90;;;;;;5071666;28;19915;-88
2022/08/29 03:45:09;;;;;;;;;;;15.50;99.90;;;;;;5071481;28;19919;-89
2022/08/29 03:47:34;;;;;;;;;;;15.50;99.90;;;;;;5071386;28;19908;-89
2022/08/29 03:50:00;;;;;;;;;;;15.40;91.80;;;;;;5071615;28;19915;-88
2022/08/29 03:52:25;;;;;;;;;;;15.40;99.90;;;;;;5071450;28;19908;-89
2022/08/29 03:54:51;;;;;;;;;;;15.30;99.90;;;;;;5072752;28;19912;-89
2022/08/29 03:57:16;;;;;;;;;;;15.30;99.90;;;;;;5071292;28;19912;-89
2022/08/29 03:59:42;;;;;;;;;;;15.20;99.90;;;;;;5071440;28;19962;-87
2022/08/29 04:02:07;;;;;;;;;;;15.20;99.90;;;;;;5071457;28;19924;-89
2022/08/29 04:07:17;;;;;;;;;;;15.10;99.90;;;;;;5072805;28;19912;-89
2022/08/29 04:09:43;;;;;;;;;;;15.00;99.90;;;;;;5071701;28;20295;-88
2022/08/29 04:12:10;;;;;;;;;;;15.00;99.90;;;;;;5066605;28;19999;-88
2022/08/29 04:14:36;;;;;;;;;;;15.00;99.90;;;;;;5055279;28;19915;-89
2022/08/29 04:17:03;;;;;;;;;;;15.00;99.90;;;;;;5055341;28;19944;-89
2022/08/29 04:19:28;;;;;;;;;;;15.00;1.00;;;;;;5055652;28;20422;-86
2022/08/29 04:21:54;;;;;;;;;;;15.00;1.00;;;;;;5056902;28;19999;-85
2022/08/29 04:24:19;;;;;;;;;;;14.90;1.00;;;;;;5072159;28;20252;-85
2022/08/29 04:26:45;;;;;;;;;;;14.90;1.00;;;;;;5072231;28;19955;-85
2022/08/29 04:29:11;;;;;;;;;;;14.90;1.00;;;;;;5055618;28;19945;-85
2022/08/29 04:31:37;;;;;;;;;;;14.80;1.00;;;;;;5055509;28;20012;-85
2022/08/29 04:34:04;;;;;;;;;;;14.80;1.00;;;;;;5056716;28;19916;-85
2022/08/29 04:36:29;;;;;;;;;;;14.80;1.00;;;;;;5055414;28;19915;-85
2022/08/29 04:38:54;;;;;;;;;;;14.90;1.00;;;;;;5055484;28;20284;-85
2022/08/29 04:41:20;;;;;;;;;;;14.90;1.00;;;;;;5071998;28;19912;-88
2022/08/29 04:43:46;;;;;;;;;;;14.90;1.00;;;;;;5055080;28;20381;-89
2022/08/29 04:46:15;;;;;;;;;;;14.90;1.00;;;;;;5055080;28;19909;-84
2022/08/29 04:48:40;;;;;;;;;;;14.90;1.00;;;;;;5071741;28;20314;-88
2022/08/29 04:51:06;;;;;;;;;;;15.00;1.00;;;;;;5071451;28;19920;-88
2022/08/29 04:53:31;;;;;;;;;;;15.00;1.00;;;;;;5071405;28;20051;-84
2022/08/29 04:55:58;;;;;;;;;;;15.00;1.00;;;;;;5054452;28;19909;-84
2022/08/29 04:58:24;;;;;;;;;;;15.00;1.00;;;;;;5054907;28;20012;-84
2022/08/29 05:00:49;;;;;;;;;;;15.00;1.00;;;;;;5054601;28;19963;-88
2022/08/29 05:03:15;;;;;;;;;;;15.00;1.00;;;;;;5054637;28;19908;-88
2022/08/29 05:05:40;;;;;;;;;;;15.10;1.00;;;;;;5054157;28;19917;-85
2022/08/29 05:08:06;;;;;;;;;;;15.10;1.00;;;;;;5071268;28;19917;-87
2022/08/29 05:10:32;;;;;;;;;;;15.20;1.00;;;;;;5064336;28;19909;-84
2022/08/29 05:12:57;;;;;;;;;;;15.20;1.00;;;;;;5074703;28;19912;-88
2022/08/29 05:15:23;;;;;;;;;;;15.20;1.00;;;;;;5075347;28;19920;-88
2022/08/29 05:17:49;;;;;;;;;;;15.20;1.00;;;;;;5074064;28;19915;-88
2022/08/29 05:20:15;;;;;;;;;;;15.30;1.00;;;;;;5074239;28;19963;-88
2022/08/29 05:22:41;;;;;;;;;;;15.30;1.00;;;;;;5074302;28;20007;-88
2022/08/29 05:25:07;;;;;;;;;;;15.40;1.00;;;;;;5075373;28;19967;-85
2022/08/29 05:27:32;;;;;;;;;;;15.40;1.00;;;;;;5074060;28;19915;-85
2022/08/29 05:29:58;;;;;;;;;;;15.40;1.00;;;;;;5074083;28;20046;-85
2022/08/29 05:32:24;;;;;;;;;;;15.40;1.00;;;;;;5074104;28;19916;-84
2022/08/29 05:34:49;;;;;;;;;;;15.40;1.00;;;;;;5075206;28;20006;-88
2022/08/29 05:37:18;;;;;;;;;;;15.50;1.00;;;;;;5073848;28;19909;-85
2022/08/29 05:39:44;;;;;;;;;;;15.60;1.00;;;;;;5073730;28;19974;-84
2022/08/29 05:42:10;;;;;;;;;;;15.60;99.90;;;;;;5075544;28;19976;-85
2022/08/29 05:44:35;;;;;;;;;;;15.60;1.00;;;;;;5076380;28;19908;-84
2022/08/29 05:47:05;;;;;;;;;;;15.70;1.00;;;;;;5076389;28;20383;-85
2022/08/29 05:49:30;;;;;;;;;;;15.80;99.90;;;;;;5075114;28;19908;-85
2022/08/29 05:51:56;;;;;;;;;;;15.90;1.00;;;;;;5067780;28;19920;-85
2022/08/29 05:54:22;;;;;;;;;;;16.00;99.90;;;;;;5053805;28;19909;-84
2022/08/29 05:56:48;;;;;;;;;;;16.10;99.90;;;;;;5053777;28;19909;-85
2022/08/29 05:59:17;;;;;;;;;;;16.20;99.90;;;;;;5053914;28;20257;-85
2022/08/29 06:01:44;;;;;;;;;;;16.30;99.90;;;;;;5053993;28;19931;-85
2022/08/29 06:04:10;;;;;;;;;;;16.40;99.90;;;;;;5054149;28;19908;-85
2022/08/29 06:06:36;;;;;;;;;;;16.50;99.90;;;;;;5055262;28;19909;-84
2022/08/29 06:09:02;;;;;;;;;;;16.60;99.90;;;;;;5054047;28;20379;-86
2022/08/29 06:11:29;;;;;;;;;;;16.70;99.90;;;;;;5055238;28;20361;-84
2022/08/29 06:13:55;;;;;;;;;;;16.90;99.90;;;;;;5053656;28;20414;-85
2022/08/29 06:16:21;;;;;;;;;;;17.00;99.90;;;;;;5054538;28;19916;-85
2022/08/29 06:18:46;;;;;;;;;;;17.20;1.00;;;;;;5053690;28;19958;-85
2022/08/29 06:21:12;;;;;;;;;;;17.30;1.00;;;;;;5072758;28;20002;-85
2022/08/29 06:23:38;;;;;;;;;;;17.50;1.00;;;;;;5073654;28;20290;-85
2022/08/29 06:26:04;;;;;;;;;;;17.60;1.00;;;;;;5074510;28;19908;-84
2022/08/29 06:28:31;;;;;;;;;;;17.60;1.00;;;;;;5073817;28;19909;-83
2022/08/29 06:31:04;;;;;;;;;;;17.70;1.00;;;;;;5073317;28;19913;-82
2022/08/29 06:33:29;;;;;;;;;;;17.80;99.90;;;;;;5073945;28;19908;-83
2022/08/29 06:35:55;;;;;;;;;;;17.80;99.90;;;;;;5072815;28;19909;-83
2022/08/29 06:38:20;;;;;;;;;;;17.80;99.90;;;;;;5074331;28;19916;-83
2022/08/29 06:40:46;;;;;;;;;;;17.80;1.00;;;;;;5072926;28;19916;-83
2022/08/29 06:43:11;;;;;;;;;;;17.90;99.90;;;;;;5072838;28;19916;-83
2022/08/29 06:45:41;;;;;;;;;;;17.90;1.00;;;;;;5072617;28;19998;-83
2022/08/29 06:48:06;;;;;;;;;;;17.90;1.00;;;;;;5073987;28;19913;-83
2022/08/29 06:50:34;;;;;;;;;;;17.90;40.00;;;;;;5072815;28;20253;-83
2022/08/29 06:53:03;;;;;;;;;;;17.90;37.30;;;;;;5069602;28;19913;-85
2022/08/29 06:55:28;;;;;;;;;;;17.90;1.00;;;;;;5057852;28;19913;-85
2022/08/29 06:57:54;;;;;;;;;;;17.90;1.00;;;;;;5052619;28;20407;-84
2022/08/29 07:00:20;;;;;;;;;;;18.00;1.00;;;;;;5051871;28;20020;-84
2022/08/29 07:02:49;;;;;;;;;;;18.00;99.90;;;;;;5052091;28;19909;-89
2022/08/29 07:05:15;;;;;;;;;;;18.10;99.90;;;;;;5069168;28;19912;-88
2022/08/29 07:07:41;;;;;;;;;;;18.20;1.00;;;;;;5051898;28;19909;-88
2022/08/29 07:10:07;;;;;;;;;;;18.40;99.90;;;;;;5052281;28;19996;-87
2022/08/29 07:12:33;;;;;;;;;;;18.50;99.90;;;;;;5052635;28;19909;-87
2022/08/29 07:14:58;;;;;;;;;;;18.60;99.90;;;;;;5052170;28;19913;-88
2022/08/29 07:17:24;;;;;;;;;;;18.70;1.00;;;;;;5051782;28;19913;-88
2022/08/29 07:19:49;;;;;;;;;;;18.80;99.90;;;;;;5052697;28;20429;-87
2022/08/29 07:22:15;;;;;;;;;;;18.90;99.90;;;;;;5053594;28;19909;-85
2022/08/29 07:24:40;;;;;;;;;;;18.90;1.00;;;;;;5051929;28;20287;-85
2022/08/29 07:27:06;;;;;;;;;;;18.90;99.90;;;;;;5051524;28;19913;-87
2022/08/29 07:29:31;;;;;;;;;;;19.10;1.00;;;;;;5052260;28;19959;-86
2022/08/29 07:31:56;;;;;;;;;;;19.20;99.90;;;;;;5052300;28;20579;-87
2022/08/29 07:34:22;;;;;;;;;;;19.40;99.90;;;;;;5053215;28;19915;-85
2022/08/29 07:36:48;;;;;;;;;;;19.50;99.90;;;;;;5057435;28;19919;-86
2022/08/29 07:39:15;;;;;;;;;;;19.70;1.00;;;;;;5073080;28;19959;-88
2022/08/29 07:41:42;;;;;;;;;;;19.90;1.00;;;;;;5072392;28;19912;-84
2022/08/29 07:44:08;;;;;;;;;;;20.00;99.90;;;;;;5071129;28;19917;-87
2022/08/29 07:46:34;;;;;;;;;;;20.10;99.90;;;;;;5071706;28;19954;-84
2022/08/29 07:48:59;;;;;;;;;;;20.30;99.90;;;;;;5071978;28;20007;-85
2022/08/29 07:51:25;;;;;;;;;;;20.40;99.90;;;;;;5071795;28;19908;-84
2022/08/29 07:53:51;;;;;;;;;;;20.60;99.90;;;;;;5071705;28;20431;-86
2022/08/29 07:56:19;;;;;;;;;;;20.80;99.90;;;;;;5072061;28;19951;-86
2022/08/29 07:58:45;;;;;;;;;;;20.90;1.00;;;;;;5071733;28;19995;-85
2022/08/29 08:01:10;;;;;;;;;;;21.00;99.90;;;;;;5073096;28;19948;-86
2022/08/29 08:03:36;;;;;;;;;;;21.00;99.90;;;;;;5072786;28;19919;-86
2022/08/29 08:06:02;;;;;;;;;;;21.00;99.90;;;;;;5071026;28;19908;-85
2022/08/29 08:08:27;;;;;;;;;;;21.10;1.00;;;;;;5071423;28;19909;-85
2022/08/29 08:10:53;;;;;;;;;;;21.20;99.90;;;;;;5072489;28;20001;-85
2022/08/29 08:13:18;;;;;;;;;;;21.20;99.90;;;;;;5072407;28;19955;-87
2022/08/29 08:15:44;;;;;;;;;;;21.30;99.90;;;;;;5070783;28;19916;-85
2022/08/29 08:18:09;;;;;;;;;;;21.40;1.00;;;;;;5072596;28;19909;-86
2022/08/29 08:20:35;;;;;;;;;;;21.50;1.00;;;;;;5071126;28;19947;-85
2022/08/29 08:23:00;;;;;;;;;;;21.60;1.00;;;;;;5072490;28;19914;-85
2022/08/29 08:25:26;;;;;;;;;;;21.60;1.00;;;;;;5072720;28;19971;-85
2022/08/29 08:27:52;;;;;;;;;;;21.70;1.00;;;;;;5089031;28;19960;-85
2022/08/29 08:30:17;;;;;;;;;;;21.80;1.00;;;;;;5072540;28;19909;-85
2022/08/29 08:32:43;;;;;;;;;;;21.90;1.00;;;;;;5072281;28;19908;-85
2022/08/29 08:35:08;;;;;;;;;;;22.10;1.00;;;;;;5072182;28;19909;-84
2022/08/29 08:37:34;;;;;;;;;;;22.20;1.00;;;;;;5068679;28;19908;-84
2022/08/29 08:39:59;;;;;;;;;;;22.40;1.00;;;;;;5054545;28;20012;-84
2022/08/29 08:42:29;;;;;;;;;;;22.50;1.00;;;;;;5058498;28;20376;-84
2022/08/29 08:45:00;;;;;;;;;;;22.60;1.00;;;;;;5053179;28;20016;-84
2022/08/29 08:47:30;;;;;;;;;;;23.20;1.00;;;;;;5068148;28;19913;-85
2022/08/29 08:50:03;;;;;;;;;;;24.70;99.90;;;;;;5064872;28;19917;-84
2022/08/29 08:52:43;;;;;;;;;;;26.30;99.90;;;;;;5056066;28;19913;-83
2022/08/29 08:55:32;;;;;;;;;;;28.00;99.90;;;;;;5047241;28;20002;-84
2022/08/29 08:58:00;;;;;;;;;;;29.80;99.90;;;;;;5048172;28;19913;-84
2022/08/29 09:00:29;;;;;;;;;;;30.80;99.90;;;;;;5054295;28;19974;-84
2022/08/29 09:03:06;;;;;;;;;;;31.30;1.00;;;;;;5055476;28;19909;-84
2022/08/29 09:05:48;;;;;;;;;;;32.10;1.00;;;;;;5053988;28;20571;-84
2022/08/29 09:08:36;;;;;;;;;;;33.50;1.00;;;;;;5054291;28;19932;-83
2022/08/29 09:11:22;;;;;;;;;;;34.00;1.00;;;;;;5053581;28;19970;-82
2022/08/29 09:14:04;;;;;;;;;;;34.70;1.00;;;;;;5070150;28;19998;-83
2022/08/29 09:16:39;;;;;;;;;;;35.30;1.00;;;;;;5064891;28;19917;-82
2022/08/29 09:19:08;;;;;;;;;;;35.00;1.00;;;;;;5073983;28;19916;-81
2022/08/29 09:21:38;;;;;;;;;;;35.70;1.00;;;;;;5074339;28;19912;-80
2022/08/29 09:24:05;;;;;;;;;;;36.70;1.00;;;;;;5073994;28;20382;-81
2022/08/29 09:26:30;;;;;;;;;;;37.60;45.00;;;;;;5074400;28;19913;-82
2022/08/29 09:28:57;;;;;;;;;;;38.30;43.10;;;;;;5073821;28;19912;-82
2022/08/29 09:31:23;;;;;;;;;;;39.00;41.60;;;;;;5073764;28;19944;-82
2022/08/29 09:34:08;;;;;;;;;;;39.50;38.40;;;;;;5073733;28;20016;-83
2022/08/29 09:36:34;;;;;;;;;;;39.30;38.50;;;;;;5073247;28;19916;-82
2022/08/29 09:39:18;;;;;;;;;;;39.20;37.80;;;;;;5073568;28;19908;-81
2022/08/29 09:41:45;;;;;;;;;;;38.60;36.90;;;;;;5073459;28;19920;-81
2022/08/29 09:44:12;;;;;;;;;;;37.90;36.50;;;;;;5073410;28;19923;-82
2022/08/29 09:46:38;;;;;;;;;;;36.80;36.90;;;;;;5074082;28;19909;-82
2022/08/29 09:49:04;;;;;;;;;;;36.10;39.20;;;;;;5073506;28;20374;-81
2022/08/29 09:51:31;;;;;;;;;;;35.60;39.00;;;;;;5074734;28;19915;-82
2022/08/29 09:54:09;;;;;;;;;;;35.20;40.00;;;;;;5073283;28;19912;-81
2022/08/29 09:56:36;;;;;;;;;;;35.00;40.60;;;;;;5072621;28;19923;-82
2022/08/29 09:59:15;;;;;;;;;;;34.40;40.80;;;;;;5073705;28;19914;-82
2022/08/29 10:01:41;;;;;;;;;;;33.60;40.80;;;;;;5074789;28;19962;-81
2022/08/29 10:04:06;;;;;;;;;;;33.00;42.80;;;;;;5073161;28;19916;-81
2022/08/29 10:06:34;;;;;;;;;;;32.60;42.80;;;;;;5072946;28;20368;-81
2022/08/29 10:09:03;;;;;;;;;;;32.70;43.80;;;;;;5074090;28;20423;-83
2022/08/29 10:11:29;;;;;;;;;;;32.70;43.50;;;;;;5073114;28;19919;-83
2022/08/29 10:14:05;;;;;;;;;;;32.60;43.90;;;;;;5068046;28;20287;-82
2022/08/29 10:16:39;;;;;;;;;;;32.90;43.90;;;;;;5053914;28;20299;-82
2022/08/29 10:19:12;;;;;;;;;;;32.40;43.40;;;;;;5052625;28;19908;-82
2022/08/29 10:21:58;;;;;;;;;;;31.80;43.70;;;;;;5052882;28;19913;-81
2022/08/29 10:24:33;;;;;;;;;;;31.30;44.50;;;;;;5053189;28;19978;-82
2022/08/29 10:27:05;;;;;;;;;;;30.90;46.10;;;;;;5052688;28;19909;-82
2022/08/29 10:29:57;;;;;;;;;;;30.60;45.10;;;;;;5052828;28;19962;-82
2022/08/29 10:32:32;;;;;;;;;;;30.40;46.50;;;;;;5051720;28;19971;-82
2022/08/29 10:35:15;;;;;;;;;;;30.40;45.70;;;;;;5053738;28;19943;-82
2022/08/29 10:37:41;;;;;;;;;;;30.40;47.90;;;;;;5053755;28;19909;-82
2022/08/29 10:40:16;;;;;;;;;;;30.60;45.10;;;;;;5052433;28;19919;-82
2022/08/29 10:42:43;;;;;;;;;;;30.30;47.10;;;;;;5052493;28;20011;-82
2022/08/29 10:45:15;;;;;;;;;;;30.10;46.90;;;;;;5069080;28;19909;-82
2022/08/29 10:47:50;;;;;;;;;;;30.00;46.40;;;;;;5052485;28;20451;-82
2022/08/29 10:50:34;;;;;;;;;;;29.80;45.70;;;;;;5069027;28;20004;-83
2022/08/29 10:53:13;;;;;;;;;;;29.80;47.30;;;;;;5052440;28;19909;-82
2022/08/29 10:55:45;;;;;;;;;;;30.20;47.70;;;;;;5052137;28;19912;-83
2022/08/29 10:58:19;;;;;;;;;;;30.20;47.60;;;;;;5052540;28;19932;-82
2022/08/29 11:00:47;;;;;;;;;;;30.20;47.30;;;;;;5053931;28;19913;-83
2022/08/29 11:03:22;;;;;;;;;;;30.00;46.40;;;;;;5053533;28;19909;-82
2022/08/29 11:05:52;;;;;;;;;;;29.60;47.70;;;;;;5053017;28;19909;-82
2022/08/29 11:08:27;;;;;;;;;;;29.30;48.30;;;;;;5051894;28;20398;-82
2022/08/29 11:10:52;;;;;;;;;;;29.00;48.70;;;;;;5068740;28;20364;-82
2022/08/29 11:13:18;;;;;;;;;;;28.70;48.20;;;;;;5052086;28;19970;-82
2022/08/29 11:15:57;;;;;;;;;;;28.40;48.90;;;;;;5051743;28;19963;-83
2022/08/29 11:18:22;;;;;;;;;;;28.20;49.20;;;;;;5053579;28;20292;-81
2022/08/29 11:20:50;;;;;;;;;;;27.80;48.30;;;;;;5053101;28;19913;-81
2022/08/29 11:23:27;;;;;;;;;;;27.70;49.60;;;;;;5051835;28;20003;-84
2022/08/29 11:25:54;;;;;;;;;;;27.60;50.60;;;;;;5051454;28;20379;-84
2022/08/29 11:28:31;;;;;;;;;;;27.50;49.50;;;;;;5051837;28;19916;-85
2022/08/29 11:31:03;;;;;;;;;;;27.20;50.20;;;;;;5052104;28;19913;-85
2022/08/29 11:33:41;;;;;;;;;;;27.00;50.70;;;;;;5051873;28;19909;-85
2022/08/29 11:36:16;;;;;;;;;;;27.00;51.80;;;;;;5051513;28;19978;-85
2022/08/29 11:38:44;;;;;;;;;;;27.20;52.60;;;;;;5052785;28;20407;-84
2022/08/29 11:41:25;;;;;;;;;;;27.10;52.60;;;;;;5052616;28;20268;-84
2022/08/29 11:43:52;;;;;;;;;;;27.00;50.10;;;;;;5052636;28;19913;-84
2022/08/29 11:46:44;;;;;;;;;;;26.70;50.20;;;;;;5052309;28;19908;-84
2022/08/29 11:49:28;;;;;;;;;;;26.70;51.90;;;;;;5049522;28;19958;-84
2022/08/29 11:51:55;;;;;;;;;;;26.80;53.60;;;;;;5051288;28;19916;-83
2022/08/29 11:54:23;;;;;;;;;;;27.00;54.10;;;;;;5051513;28;20025;-84
2022/08/29 11:57:01;;;;;;;;;;;27.10;51.50;;;;;;5051018;28;19916;-85
2022/08/29 11:59:47;;;;;;;;;;;27.00;51.60;;;;;;5051158;28;19966;-83
2022/08/29 12:02:28;;;;;;;;;;;27.10;51.40;;;;;;5052581;28;19912;-84
2022/08/29 12:04:56;;;;;;;;;;;27.10;51.80;;;;;;5051184;28;19909;-84
2022/08/29 12:07:42;;;;;;;;;;;27.10;51.70;;;;;;5051240;28;19948;-84
2022/08/29 12:10:22;;;;;;;;;;;27.10;50.80;;;;;;5043754;28;19909;-84
2022/08/29 12:13:01;;;;;;;;;;;27.10;51.90;;;;;;5051342;28;19931;-83
2022/08/29 12:15:34;;;;;;;;;;;27.20;52.60;;;;;;5055119;28;20511;-85
2022/08/29 12:18:11;;;;;;;;;;;27.30;51.60;;;;;;5063171;28;19908;-84
2022/08/29 12:20:39;;;;;;;;;;;27.50;50.60;;;;;;5071173;28;20471;-85
2022/08/29 12:23:08;;;;;;;;;;;27.50;51.80;;;;;;5071205;28;19930;-85
2022/08/29 12:25:36;;;;;;;;;;;27.60;52.00;;;;;;5072306;28;19932;-86
2022/08/29 12:28:14;;;;;;;;;;;27.70;52.00;;;;;;5070971;28;20287;-85
2022/08/29 12:30:41;;;;;;;;;;;27.80;52.10;;;;;;5074184;28;19915;-83
2022/08/29 12:33:26;;;;;;;;;;;27.70;51.10;;;;;;5074877;28;20260;-85
2022/08/29 12:35:59;;;;;;;;;;;27.70;50.00;;;;;;5074722;28;19908;-84
2022/08/29 12:38:32;;;;;;;;;;;27.70;51.70;;;;;;5076100;28;19908;-85
2022/08/29 12:41:17;;;;;;;;;;;27.70;51.60;;;;;;5075178;28;20512;-84
2022/08/29 12:43:43;;;;;;;;;;;27.90;52.00;;;;;;5074878;28;19908;-85
2022/08/29 12:46:14;;;;;;;;;;;27.60;49.90;;;;;;5076079;28;19908;-86
2022/08/29 12:48:43;;;;;;;;;;;27.70;50.50;;;;;;5076193;28;20337;-86
2022/08/29 12:51:08;;;;;;;;;;;27.80;50.30;;;;;;5074853;28;19967;-85
2022/08/29 12:53:34;;;;;;;;;;;27.90;50.80;;;;;;5074820;28;19936;-86
2022/08/29 12:56:01;;;;;;;;;;;27.90;49.20;;;;;;5074327;28;19909;-86
2022/08/29 12:58:33;;;;;;;;;;;28.00;50.60;;;;;;5075851;28;19916;-84
2022/08/29 13:00:59;;;;;;;;;;;28.10;50.80;;;;;;5074530;28;19916;-82
2022/08/29 13:03:24;;;;;;;;;;;28.30;50.80;;;;;;5075956;28;20403;-86
2022/08/29 13:05:50;;;;;;;;;;;28.30;49.50;;;;;;5075445;28;19909;-85
2022/08/29 13:08:26;;;;;;;;;;;28.40;50.80;;;;;;5074327;28;19912;-85
2022/08/29 13:10:56;;;;;;;;;;;28.40;50.20;;;;;;5074271;28;19962;-86
2022/08/29 13:13:23;;;;;;;;;;;28.50;50.50;;;;;;5075505;28;19915;-84
2022/08/29 13:15:50;;;;;;;;;;;28.40;51.10;;;;;;5075132;28;19965;-85
2022/08/29 13:18:15;;;;;;;;;;;28.30;50.00;;;;;;5074202;28;19916;-83
2022/08/29 13:20:44;;;;;;;;;;;28.10;49.30;;;;;;5074330;28;19912;-85
2022/08/29 13:23:16;;;;;;;;;;;28.30;49.30;;;;;;5075215;28;19914;-83
2022/08/29 13:25:43;;;;;;;;;;;28.30;48.90;;;;;;5074958;28;20391;-86
2022/08/29 13:28:20;;;;;;;;;;;28.50;50.80;;;;;;5074019;28;20007;-85
2022/08/29 13:31:04;;;;;;;;;;;28.60;50.10;;;;;;5042128;28;19913;-85
2022/08/29 13:33:30;;;;;;;;;;;28.60;49.40;;;;;;5054699;28;19952;-84
2022/08/29 13:35:55;;;;;;;;;;;28.70;50.70;;;;;;5055098;28;19917;-84
2022/08/29 13:38:22;;;;;;;;;;;28.70;49.60;;;;;;5058269;28;19909;-85
2022/08/29 13:40:49;;;;;;;;;;;29.00;49.10;;;;;;5073543;28;19958;-88
2022/08/29 13:43:33;;;;;;;;;;;29.50;49.30;;;;;;5073064;28;19911;-88
2022/08/29 13:46:11;;;;;;;;;;;29.50;49.90;;;;;;5073792;28;20379;-88
2022/08/29 13:48:37;;;;;;;;;;;29.40;48.00;;;;;;5074016;28;19935;-87
2022/08/29 13:51:03;;;;;;;;;;;29.40;47.80;;;;;;5074258;28;19950;-89
2022/08/29 13:53:30;;;;;;;;;;;29.30;47.40;;;;;;5073707;28;20339;-88
2022/08/29 13:55:55;;;;;;;;;;;29.50;46.30;;;;;;5073586;28;20371;-87
2022/08/29 13:58:21;;;;;;;;;;;29.20;45.90;;;;;;5074090;28;19909;-87
2022/08/29 14:00:47;;;;;;;;;;;29.20;47.30;;;;;;5074029;28;19935;-88
2022/08/29 14:03:15;;;;;;;;;;;28.90;46.20;;;;;;5074177;28;19915;-88
2022/08/29 14:05:41;;;;;;;;;;;28.80;46.60;;;;;;5073288;28;19963;-88
2022/08/29 14:08:09;;;;;;;;;;;28.80;47.70;;;;;;5073497;28;20022;-89
2022/08/29 14:10:34;;;;;;;;;;;28.70;46.20;;;;;;5073473;28;20354;-88
2022/08/29 14:13:00;;;;;;;;;;;28.80;47.00;;;;;;5073769;28;19912;-90
2022/08/29 14:15:26;;;;;;;;;;;28.90;47.00;;;;;;5073199;28;20023;-87
2022/08/29 14:17:51;;;;;;;;;;;28.90;47.50;;;;;;5074751;28;19908;-89
2022/08/29 14:20:17;;;;;;;;;;;28.90;46.70;;;;;;5073251;28;20018;-89
2022/08/29 14:22:42;;;;;;;;;;;28.90;46.20;;;;;;5061774;28;20368;-90
2022/08/29 14:25:09;;;;;;;;;;;28.90;45.70;;;;;;5065871;28;19909;-89
2022/08/29 14:27:34;;;;;;;;;;;29.00;46.40;;;;;;5055886;28;19912;-85
2022/08/29 14:30:00;;;;;;;;;;;29.20;43.90;;;;;;5073091;28;19908;-86
2022/08/29 14:32:26;;;;;;;;;;;29.80;44.40;;;;;;5073190;28;19912;-86